Latest Weather Observations for Cape Ferguson

IDQ60801

Issued at 6:05 pm EST Wednesday 22 October 2014 (issued every 30 minutes, with the page automatically refreshed every 10 minutes)

About weather observations | Map of weather stations | Latest weather observations for QLD | Other Formats
Station Details ID: 032182 Name: CAPE FERGUSON NTC AWS Lat: -19.28 Lon: 147.06 Height: 0.0 m
Data from the previous 72 hours. | See also: Recent months for locations in Queensland
Date/Time
EST
Temp
°C
App
Temp
°C
Dew
Point
Rel
Hum
%
Delta-T
°C
Wind Press
QNH
hPa
Press
MSL
hPa
Rain
since 9 am
mm
Dir
 
Spd
km/h
Gust
km/h
Spd
kts
Gust
kts
22/06:00pm 24.2 - - - - E 35 46 19 25 1018.3 1018.3 -
22/05:30pm 24.2 - - - - E 37 48 20 26 1018.1 1018.1 -
22/05:00pm 24.4 - - - - E 35 46 19 25 1017.8 1017.8 -
22/04:30pm 24.4 - - - - E 33 43 18 23 1017.7 1017.7 -
22/04:00pm 24.4 - - - - E 35 43 19 23 1017.8 1017.8 -
22/03:30pm 24.3 - - - - E 33 39 18 21 1017.6 1017.6 -
22/03:00pm 24.3 - - - - E 32 39 17 21 1017.7 1017.7 -
22/02:30pm 24.5 - - - - E 32 39 17 21 1017.9 1017.9 -
22/02:00pm 24.5 - - - - E 32 39 17 21 1018.3 1018.3 -
22/01:30pm 24.3 - - - - E 28 37 15 20 1018.6 1018.6 -
22/01:00pm 24.3 - - - - E 33 39 18 21 1019.2 1019.2 -
22/12:30pm 24.1 - - - - E 35 43 19 23 1019.7 1019.7 -
22/12:00pm 24.0 - - - - E 33 39 18 21 1020.1 1020.1 -
22/11:30am 23.3 - - - - E 24 32 13 17 1020.4 1020.4 -
22/11:00am 22.6 - - - - SSE 13 19 7 10 1020.5 1020.5 -
22/10:30am 21.8 - - - - SSE 13 17 7 9 1020.6 1020.6 -
22/10:00am 20.9 - - - - SSE 11 17 6 9 1020.8 1020.8 -
22/09:30am 20.5 - - - - SSE 15 20 8 11 1021.1 1021.1 -
22/09:00am 20.1 - - - - SSE 30 37 16 20 1021.3 1021.3 -
22/08:30am 20.2 - - - - SSE 30 37 16 20 1021.2 1021.2 -
22/08:00am 20.0 - - - - SSE 26 37 14 20 1020.9 1020.9 -
22/07:30am 20.6 - - - - SSE 24 32 13 17 1020.6 1020.6 -
22/07:00am 20.1 - - - - SE 26 33 14 18 1020.4 1020.4 -
22/06:30am 19.7 - - - - S 11 15 6 8 1019.4 1019.4 -
22/06:00am 20.4 - - - - SSE 20 26 11 14 1019.3 1019.3 -
22/05:30am 19.9 - - - - S 24 30 13 16 1018.9 1018.9 -
22/05:00am 20.4 - - - - SSE 26 33 14 18 1019.1 1019.1 -
22/04:30am 20.1 - - - - S 26 28 14 15 1018.7 1018.7 -
22/04:00am 20.4 - - - - SE 24 32 13 17 1018.8 1018.8 -
22/03:30am 20.0 - - - - SE 30 37 16 20 1018.9 1018.9 -
22/03:00am 21.1 - - - - SSE 22 26 12 14 1018.5 1018.5 -
22/02:30am 21.1 - - - - SSE 30 39 16 21 1018.9 1018.9 -
22/02:00am 22.0 - - - - SSE 20 24 11 13 1019.0 1019.0 -
22/01:30am 21.8 - - - - SSE 20 28 11 15 1019.4 1019.4 -
22/01:00am 21.9 - - - - SSE 24 30 13 16 1020.1 1020.1 -
22/12:30am 22.0 - - - - S 20 24 11 13 1020.4 1020.4 -
22/12:00am 22.4 - - - - S 20 24 11 13 1020.7 1020.7 -
 
Date/Time
EST
Temp
°C
App
Temp
°C
Dew
Point
Rel
Hum
%
Delta-T
°C
Wind Press
QNH
hPa
Press
MSL
hPa
Rain
since 9 am
mm
Dir
 
Spd
km/h
Gust
km/h
Spd
kts
Gust
kts
21/11:30pm 22.7 - - - - S 19 24 10 13 1020.9 1020.9 -
21/11:00pm 23.8 - - - - ESE 30 44 16 24 1021.5 1021.5 -
21/10:30pm 24.2 - - - - E 37 48 20 26 1022.0 1022.0 -
21/10:00pm 24.1 - - - - ESE 35 46 19 25 1021.9 1021.9 -
21/09:30pm 24.2 - - - - ESE 37 44 20 24 1021.7 1021.7 -
21/09:00pm 24.1 - - - - ESE 37 46 20 25 1021.2 1021.2 -
21/08:30pm 24.3 - - - - ESE 37 48 20 26 1020.8 1020.8 -
21/08:00pm 24.3 - - - - ESE 39 46 21 25 1020.6 1020.6 -
21/07:30pm 24.3 - - - - E 39 50 21 27 1020.2 1020.2 -
21/07:00pm 24.2 - - - - E 44 54 24 29 1020.2 1020.2 -
21/06:30pm 24.3 - - - - E 41 48 22 26 1019.9 1019.9 -
21/06:00pm 24.4 - - - - E 37 48 20 26 1019.5 1019.5 -
21/05:30pm 24.5 - - - - E 35 44 19 24 1019.0 1019.0 -
21/05:00pm 24.4 - - - - E 37 44 20 24 1018.9 1018.9 -
21/04:30pm 24.4 - - - - E 39 46 21 25 1018.7 1018.7 -
21/04:00pm 24.2 - - - - E 37 44 20 24 1018.4 1018.4 -
21/03:30pm 24.3 - - - - E 35 43 19 23 1018.5 1018.5 -
21/03:00pm 24.5 - - - - E 35 44 19 24 1018.4 1018.4 -
21/02:30pm 24.4 - - - - E 35 41 19 22 1018.8 1018.8 -
21/02:00pm 24.3 - - - - E 35 41 19 22 1019.2 1019.2 -
21/01:30pm 24.4 - - - - E 35 43 19 23 1019.5 1019.5 -
21/01:00pm 24.4 - - - - E 35 43 19 23 1019.8 1019.8 -
21/12:30pm 24.3 - - - - E 37 44 20 24 1020.2 1020.2 -
21/12:00pm 24.2 - - - - E 37 44 20 24 1020.7 1020.7 -
21/11:30am 24.3 - - - - E 37 48 20 26 1021.0 1021.0 -
21/11:00am 24.1 - - - - ESE 35 43 19 23 1021.4 1021.4 -
21/10:30am 24.0 - - - - ESE 33 41 18 22 1021.4 1021.4 -
21/10:00am 23.9 - - - - ESE 32 39 17 21 1021.6 1021.6 -
21/09:30am 23.8 - - - - SE 24 32 13 17 1021.5 1021.5 -
21/09:00am 23.3 - - - - SE 19 26 10 14 1021.3 1021.3 -
21/08:30am 22.5 - - - - SSE 20 28 11 15 1021.1 1021.1 -
21/08:00am 21.9 - - - - SSE 26 32 14 17 1020.9 1020.9 -
21/07:30am 21.7 - - - - SSE 28 32 15 17 1020.3 1020.3 -
21/07:00am 21.4 - - - - SSE 26 33 14 18 1019.8 1019.8 -
21/06:30am 21.5 - - - - SSE 24 32 13 17 1019.3 1019.3 -
21/06:00am 21.5 - - - - SSE 24 30 13 16 1019.1 1019.1 -
21/05:30am 21.4 - - - - SSE 26 32 14 17 1018.8 1018.8 -
21/05:00am 21.3 - - - - SSE 26 32 14 17 1018.4 1018.4 -
21/04:30am 21.6 - - - - SSE 22 26 12 14 1018.2 1018.2 -
21/04:00am 21.7 - - - - S 19 22 10 12 1018.2 1018.2 -
21/03:30am 21.6 - - - - SSE 20 26 11 14 1018.1 1018.1 -
21/03:00am 21.6 - - - - SSE 19 24 10 13 1018.1 1018.1 -
21/02:30am 22.1 - - - - SE 22 28 12 15 1018.4 1018.4 -
21/02:00am 21.7 - - - - SSE 22 28 12 15 1018.7 1018.7 -
21/01:30am 21.8 - - - - SSE 20 26 11 14 1019.0 1019.0 -
21/01:00am 22.0 - - - - SSE 20 28 11 15 1019.6 1019.6 -
21/12:30am 22.2 - - - - SSE 24 30 13 16 1019.9 1019.9 -
21/12:00am 22.5 - - - - SSE 22 28 12 15 1020.2 1020.2 -
 
Date/Time
EST
Temp
°C
App
Temp
°C
Dew
Point
Rel
Hum
%
Delta-T
°C
Wind Press
QNH
hPa
Press
MSL
hPa
Rain
since 9 am
mm
Dir
 
Spd
km/h
Gust
km/h
Spd
kts
Gust
kts
20/11:30pm 23.4 - - - - SSE 24 32 13 17 1020.2 1020.2 -
20/11:00pm 23.9 - - - - ESE 33 44 18 24 1020.8 1020.8 -
20/10:30pm 24.1 - - - - ESE 35 44 19 24 1021.1 1021.1 -
20/10:00pm 24.1 - - - - ESE 37 46 20 25 1021.1 1021.1 -
20/09:30pm 24.4 - - - - E 35 43 19 23 1021.0 1021.0 -
20/09:00pm 24.2 - - - - E 33 41 18 22 1020.9 1020.9 -
20/08:30pm 24.1 - - - - ESE 30 37 16 20 1020.5 1020.5 -
20/08:00pm 24.2 - - - - E 28 35 15 19 1019.9 1019.9 -
20/07:30pm 24.1 - - - - E 30 33 16 18 1019.6 1019.6 -
20/07:00pm 24.0 - - - - E 35 43 19 23 1019.1 1019.1 -
20/06:30pm 24.1 - - - - E 37 48 20 26 1018.7 1018.7 -
20/06:00pm 24.3 - - - - E 35 43 19 23 1018.4 1018.4 -
20/05:30pm 24.4 - - - - E 32 39 17 21 1018.1 1018.1 -
20/05:00pm 24.1 - - - - E 33 39 18 21 1017.8 1017.8 -
20/04:30pm 24.3 - - - - E 33 39 18 21 1017.6 1017.6 -
20/04:00pm 24.6 - - - - E 32 39 17 21 1017.4 1017.4 -
20/03:30pm 24.3 - - - - E 35 43 19 23 1017.5 1017.5 -
20/03:00pm 24.2 - - - - E 28 37 15 20 1017.6 1017.6 -
20/02:30pm 24.1 - - - - E 28 32 15 17 1018.0 1018.0 -
20/02:00pm 24.4 - - - - E 28 33 15 18 1018.3 1018.3 -
20/01:30pm 24.4 - - - - E 33 39 18 21 1018.8 1018.8 -
20/01:00pm 24.4 - - - - E 35 43 19 23 1019.1 1019.1 -
20/12:30pm 24.2 - - - - E 37 43 20 23 1019.5 1019.5 -
20/12:00pm 24.4 - - - - E 37 44 20 24 1020.2 1020.2 -
20/11:30am 24.3 - - - - E 33 41 18 22 1020.8 1020.8 -
20/11:00am 24.1 - - - - E 33 39 18 21 1021.1 1021.1 -
20/10:30am 23.8 - - - - E 30 37 16 20 1021.4 1021.4 -
20/10:00am 23.8 - - - - ESE 22 28 12 15 1021.4 1021.4 -
20/09:30am 23.5 - - - - SE 24 30 13 16 1021.9 1021.9 -
20/09:00am 22.9 - - - - SSE 20 26 11 14 1021.7 1021.7 -
20/08:30am 22.5 - - - - SSE 26 32 14 17 1021.7 1021.7 -
20/08:00am 22.1 - - - - SSE 26 33 14 18 1021.6 1021.6 -
20/07:30am 22.0 - - - - SSE 28 35 15 19 1021.4 1021.4 -
20/07:00am 21.8 - - - - SSE 28 35 15 19 1021.1 1021.1 -
20/06:30am 21.9 - - - - SSE 26 33 14 18 1020.6 1020.6 -
20/06:00am 21.7 - - - - S 28 33 15 18 1020.1 1020.1 -
20/05:30am 21.8 - - - - S 30 37 16 20 1019.7 1019.7 -
20/05:00am 21.7 - - - - S 32 39 17 21 1019.3 1019.3 -
20/04:30am 22.1 - - - - SSE 28 33 15 18 1019.2 1019.2 -
20/04:00am 22.3 - - - - SSE 24 33 13 18 1018.9 1018.9 -
20/03:30am 21.9 - - - - SSE 26 32 14 17 1019.2 1019.2 -
20/03:00am 22.0 - - - - SSE 26 32 14 17 1019.1 1019.1 -
20/02:30am 22.4 - - - - SSE 28 33 15 18 1019.2 1019.2 -
20/02:00am 22.1 - - - - SSE 24 33 13 18 1019.6 1019.6 -
20/01:30am 22.2 - - - - SSE 26 32 14 17 1019.8 1019.8 -
20/01:00am 22.3 - - - - S 20 26 11 14 1020.1 1020.1 -
20/12:30am 22.6 - - - - S 22 26 12 14 1020.5 1020.5 -
20/12:00am 22.7 - - - - SSE 20 24 11 13 1020.8 1020.8 -
 
Date/Time
EST
Temp
°C
App
Temp
°C
Dew
Point
Rel
Hum
%
Delta-T
°C
Wind Press
QNH
hPa
Press
MSL
hPa
Rain
since 9 am
mm
Dir
 
Spd
km/h
Gust
km/h
Spd
kts
Gust
kts
19/11:30pm 23.1 - - - - SSE 20 26 11 14 1020.9 1020.9 -
19/11:00pm 23.4 - - - - SE 22 32 12 17 1021.1 1021.1 -
19/10:42pm 23.4 - - - - SSE 22 24 12 13 1021.2 1021.2 -
19/10:30pm 23.8 - - - - SE 37 44 20 24 1021.6 1021.6 -
19/10:00pm 24.2 - - - - ESE 39 48 21 26 1021.8 1021.8 -
19/09:30pm 24.2 - - - - ESE 35 46 19 25 1021.5 1021.5 -
19/09:00pm 24.3 - - - - ESE 35 46 19 25 1021.2 1021.2 -
19/08:30pm 24.2 - - - - E 39 52 21 28 1020.9 1020.9 -
19/08:00pm 24.3 - - - - E 41 52 22 28 1020.7 1020.7 -
19/07:30pm 24.5 - - - - E 41 52 22 28 1020.4 1020.4 -
19/07:00pm 24.5 - - - - E 41 50 22 27 1020.2 1020.2 -
19/06:30pm 24.6 - - - - E 37 50 20 27 1019.7 1019.7 -

Other Formats:

Comma delimited format used in spreadsheet applications
http://www.bom.gov.au/fwo/IDQ60801/IDQ60801.94297.axf

JavaScript Object Notation format (JSON) in row-major order
http://www.bom.gov.au/fwo/IDQ60801/IDQ60801.94297.json